Terminal Aerodrome Forecast
Issued by NWS

Home | Current Version | Previous Version | Text Only | Print | Product List | Glossary On
Versions: 1 2 3 4 5 6 7 8 9 10 11 12 13 14 15 16 17 18 19 20 21 22 23 24 25 26
000
FTUS45 KBOU 230539
TAFBJC
TAF
KBJC 230539Z 2306/2406 30007KT P6SM SCT050 BKN100
     FM231100 25007KT P6SM SCT060
     FM231500 34011KT P6SM SCT070
     FM231700 35013G21KT P6SM BKN070
     FM240000 02010KT P6SM SCT080
     FM240300 06006KT P6SM SCT120=

USA.gov is the U.S. government's official web portal to all federal, state and local government web resources and services.